Mare Frisium — PCBM — position and weather

sailwx.info

Track history (hours):
 
Tides and Currents Weather Stations Pressure Air Temp Water Temp Dewpoint Dewpoint Depression Visibility Wind Speed Wind Dir Waves Ship Positions

Mare Frisium (Netherlands)

Ship's website: http://www.tallship-company.com/mare-frisium-2/

Last reported at 2017-Aug-20 11:30 UTC. Time now 2017-Aug-20 11:30 UTC.
Position N 53°33' E 009°50'.

Length 50 m; draft 2.7 m.

Type: Sailing vessel. MMSI: 244596000.

Date/timePositionNaut miles runAvg speedWind from/ knotsBaromVisibWave heightAir tempDewpointWater temp
2017-Aug-20 11:30N 53°33' E 009°50'2 4.2
2017-Aug-20 11:00N 53°34' E 009°46'2 4.2
2017-Aug-20 10:30N 53°33' E 009°50'2 4.0
2017-Aug-20 10:00N 53°33' E 009°53'2 4.1
2017-Aug-20 09:30N 53°33' E 009°56'2 2.9
2017-Aug-20 08:59N 53°33' E 009°59'0 0.0
2017-Aug-20 08:29N 53°33' E 009°59'0 0.0
2017-Aug-20 07:59N 53°33' E 009°59'0 0.2
2017-Aug-20 07:31N 53°33' E 009°59'0 0.0
2017-Aug-20 07:01N 53°33' E 009°59'0 0.0
2017-Aug-20 06:28N 53°33' E 009°59'0 0.0
2017-Aug-20 05:58N 53°33' E 009°59'0 0.0
2017-Aug-20 05:31N 53°33' E 009°59'0 0.0
2017-Aug-20 05:01N 53°33' E 009°59'0 0.0
2017-Aug-20 04:28N 53°33' E 009°59'0 0.0
2017-Aug-20 04:01N 53°33' E 009°59'0 0.0
2017-Aug-20 03:31N 53°33' E 009°59'0 0.0
2017-Aug-20 03:01N 53°33' E 009°59'0 0.0
2017-Aug-20 02:28N 53°33' E 009°59'0 0.0
2017-Aug-20 01:58N 53°33' E 009°59'0 0.0
2017-Aug-20 01:31N 53°33' E 009°59'0 0.0
2017-Aug-20 00:58N 53°33' E 009°59'0 0.0
2017-Aug-20 00:28N 53°33' E 009°59'0 0.0
2017-Aug-19 23:58N 53°33' E 009°59'0 0.0
2017-Aug-19 23:28N 53°33' E 009°59'0 0.0
2017-Aug-19 22:58N 53°33' E 009°59'0 0.0
2017-Aug-19 22:28N 53°33' E 009°59'0 0.0
2017-Aug-19 21:58N 53°33' E 009°59'0 0.0
2017-Aug-19 21:28N 53°33' E 009°59'0 0.0
2017-Aug-19 20:58N 53°33' E 009°59'0 0.0
2017-Aug-19 20:31N 53°33' E 009°59'0 0.2
2017-Aug-19 20:01N 53°32' E 009°59'2 4.9
2017-Aug-19 19:30N 53°32' E 009°55'2 4.9
2017-Aug-19 19:00N 53°33' E 009°51'3 5.6
2017-Aug-19 18:30N 53°34' E 009°46'2 4.7
2017-Aug-19 18:01N 53°34' E 009°42'2 3.9
2017-Aug-19 17:30N 53°34' E 009°39'2 3.9
2017-Aug-19 17:01N 53°35' E 009°36'1 2.8
2017-Aug-19 16:30N 53°36' E 009°35'1 2.7
2017-Aug-19 16:00N 53°37' E 009°33'2 3.4
2017-Aug-19 15:30N 53°39' E 009°31'2 3.6
2017-Aug-19 15:00N 53°40' E 009°31'3 3.4
2017-Aug-19 14:01N 53°37' E 009°33'3 5.1
2017-Aug-19 13:30N 53°36' E 009°36'3 5.2
2017-Aug-19 13:00N 53°34' E 009°40'3 5.5
2017-Aug-19 12:31N 53°34' E 009°45'3 5.2
2017-Aug-19 12:00N 53°33' E 009°49'3 5.0
2017-Aug-19 11:30N 53°33' E 009°53'3 5.5
2017-Aug-19 11:00N 53°33' E 009°58'1 1.4
2017-Aug-19 10:25N 53°33' E 009°59'0 0.0
2017-Aug-19 09:58N 53°33' E 009°59'0 0.0
2017-Aug-19 09:28N 53°33' E 009°59'0 0.0
2017-Aug-19 08:58N 53°33' E 009°59'0 0.0
2017-Aug-19 08:28N 53°33' E 009°59'0 0.0
2017-Aug-19 07:58N 53°33' E 009°59'0 0.1
2017-Aug-19 07:31N 53°32' E 009°59'0 0.2
2017-Aug-19 06:58N 53°33' E 009°59'0 0.0
2017-Aug-19 06:28N 53°33' E 009°59'0 0.0
2017-Aug-19 05:58N 53°33' E 009°59'0 0.0
2017-Aug-19 05:28N 53°33' E 009°59'0 0.0
2017-Aug-19 04:58N 53°33' E 009°59'0 0.0
2017-Aug-19 04:28N 53°33' E 009°59'0 0.0
2017-Aug-19 03:58N 53°33' E 009°59'0 0.0
2017-Aug-19 03:28N 53°33' E 009°59'0 0.0
2017-Aug-19 02:58N 53°33' E 009°59'0 0.0
2017-Aug-19 02:28N 53°33' E 009°59'0 0.0
2017-Aug-19 01:58N 53°33' E 009°59'0 0.0
2017-Aug-19 01:28N 53°33' E 009°59'0 0.0
2017-Aug-19 00:58N 53°33' E 009°59'0 0.0
2017-Aug-19 00:28N 53°33' E 009°59'0 0.0
2017-Aug-18 23:58N 53°33' E 009°59'0 0.0
2017-Aug-18 23:28N 53°33' E 009°59'0 0.0
2017-Aug-18 22:58N 53°33' E 009°59'0 0.0
2017-Aug-18 22:28N 53°33' E 009°59'0 0.0
2017-Aug-18 21:58N 53°33' E 009°59'0 0.0
2017-Aug-18 21:28N 53°33' E 009°59'0 0.0
2017-Aug-18 20:58N 53°33' E 009°59'0 0.0
2017-Aug-18 20:28N 53°33' E 009°59'0 0.0
2017-Aug-18 19:58N 53°33' E 009°59'0 0.0
2017-Aug-18 19:28N 53°33' E 009°59'0 0.0
2017-Aug-18 18:58N 53°33' E 009°59'0 0.0
2017-Aug-18 18:28N 53°33' E 009°59'0 0.0
2017-Aug-18 17:58N 53°33' E 009°59'0 0.0
2017-Aug-18 17:28N 53°33' E 009°59'0 0.0
2017-Aug-18 16:58N 53°33' E 009°59'0 0.0
2017-Aug-18 16:28N 53°33' E 009°59'0 0.0
2017-Aug-18 15:58N 53°33' E 009°59'0 0.0
2017-Aug-18 15:28N 53°33' E 009°59'0 0.0
2017-Aug-18 14:58N 53°33' E 009°59'0 0.0
2017-Aug-18 14:28N 53°33' E 009°59'0 0.0
2017-Aug-18 13:28N 53°33' E 009°59'0 0.0
2017-Aug-18 12:58N 53°33' E 009°59'0 0.0
2017-Aug-18 12:28N 53°33' E 009°59'0 0.0
2017-Aug-18 11:58N 53°33' E 009°59'0 0.0
2017-Aug-18 11:28N 53°33' E 009°59'0 0.0
2017-Aug-18 10:58N 53°33' E 009°59'0 0.0
2017-Aug-18 10:28N 53°33' E 009°59'0 0.0
2017-Aug-18 09:58N 53°33' E 009°59'0 0.0
2017-Aug-18 09:28N 53°33' E 009°59'0 0.0
2017-Aug-18 08:58N 53°33' E 009°59'0 0.0
2017-Aug-18 08:28N 53°33' E 009°59'0 0.0
2017-Aug-18 07:58N 53°33' E 009°59'0 0.0
2017-Aug-18 07:28N 53°33' E 009°59'0 0.0
2017-Aug-18 06:58N 53°33' E 009°59'0 0.0
2017-Aug-18 06:28N 53°33' E 009°59'0 0.0
2017-Aug-18 05:58N 53°33' E 009°59'0 0.0
2017-Aug-18 05:28N 53°33' E 009°59'0 0.0
2017-Aug-18 04:58N 53°33' E 009°59'0 0.0
2017-Aug-18 04:28N 53°33' E 009°59'0 0.0
2017-Aug-18 03:58N 53°33' E 009°59'0 0.0
2017-Aug-18 03:25N 53°33' E 009°59'0 0.0
2017-Aug-18 02:58N 53°33' E 009°59'0 0.0
2017-Aug-18 02:28N 53°33' E 009°59'0 0.0
2017-Aug-18 01:58N 53°33' E 009°59'0 0.0
2017-Aug-18 01:28N 53°33' E 009°59'0 0.0
2017-Aug-18 00:58N 53°33' E 009°59'0 0.0
2017-Aug-18 00:28N 53°33' E 009°59'0 0.0
2017-Aug-17 23:58N 53°33' E 009°59'0 0.0
2017-Aug-17 23:28N 53°33' E 009°59'0 0.0
2017-Aug-17 22:58N 53°33' E 009°59'0 0.0
2017-Aug-17 22:28N 53°33' E 009°59'0 0.0
2017-Aug-17 21:58N 53°33' E 009°59'0 0.0
2017-Aug-17 21:28N 53°33' E 009°59'0 0.0
2017-Aug-17 20:58N 53°33' E 009°59'0 0.0
2017-Aug-17 20:28N 53°33' E 009°59'0 0.1
2017-Aug-17 20:00N 53°33' E 009°59'2 5.0
2017-Aug-17 19:30N 53°32' E 009°55'3 5.4
2017-Aug-17 19:01N 53°33' E 009°50'3 5.6
2017-Aug-17 18:30N 53°34' E 009°46'2 4.5
2017-Aug-17 18:00N 53°34' E 009°42'2 3.5
2017-Aug-17 17:31N 53°34' E 009°39'2 4.3
2017-Aug-17 17:00N 53°34' E 009°43'3 5.5
2017-Aug-17 16:30N 53°34' E 009°47'3 5.6
2017-Aug-17 16:00N 53°33' E 009°52'3 6.2
2017-Aug-17 15:30N 53°33' E 009°57'1 2.1
2017-Aug-17 14:58N 53°33' E 009°59'0 0.0
2017-Aug-17 14:28N 53°33' E 009°59'0 0.0
2017-Aug-17 13:58N 53°33' E 009°59'0 0.0
2017-Aug-17 13:28N 53°33' E 009°59'0 0.1
2017-Aug-17 12:58N 53°33' E 009°59'0 0.0
2017-Aug-17 12:28N 53°33' E 009°59'0 0.0
2017-Aug-17 11:58N 53°33' E 009°59'0 0.0
2017-Aug-17 11:28N 53°33' E 009°59'0 0.0
2017-Aug-17 10:58N 53°33' E 009°59'0 0.1
2017-Aug-17 10:28N 53°33' E 009°59'0 0.1
2017-Aug-17 09:58N 53°33' E 009°59'0 0.0
2017-Aug-17 09:28N 53°33' E 009°59'0 0.0
2017-Aug-17 08:58N 53°33' E 009°59'0 0.0
2017-Aug-17 08:28N 53°33' E 009°59'0 0.0
2017-Aug-17 07:59N 53°33' E 009°59'2 3.5
2017-Aug-17 07:31N 53°32' E 009°56'3 6.1
2017-Aug-17 07:00N 53°29' E 009°58'1 2.1
2017-Aug-17 06:31N 53°28' E 009°59'0 0.3
2017-Aug-17 06:00N 53°28' E 009°59'0 0.0
2017-Aug-17 05:29N 53°28' E 009°59'0 0.0
2017-Aug-17 04:59N 53°28' E 009°59'0 0.0
2017-Aug-17 04:29N 53°28' E 009°59'0 0.0
2017-Aug-17 03:59N 53°28' E 009°59'0 0.0
2017-Aug-17 03:29N 53°28' E 009°59'0 0.0
2017-Aug-17 02:59N 53°28' E 009°59'0 0.0
2017-Aug-17 02:29N 53°28' E 009°59'0 0.0
2017-Aug-17 01:56N 53°28' E 009°59'0 0.0
2017-Aug-17 01:29N 53°28' E 009°59'0 0.0
2017-Aug-17 00:59N 53°28' E 009°59'0 0.0
2017-Aug-17 00:29N 53°28' E 009°59'0 0.0
2017-Aug-16 23:59N 53°28' E 009°59'0 0.0
2017-Aug-16 23:29N 53°28' E 009°59'0 0.0
2017-Aug-16 22:59N 53°28' E 009°59'0 0.0
2017-Aug-16 22:29N 53°28' E 009°59'0 0.0
2017-Aug-16 21:59N 53°28' E 009°59'0 0.0
2017-Aug-16 21:29N 53°28' E 009°59'0 0.0
2017-Aug-16 20:59N 53°28' E 009°59'0 0.0
2017-Aug-16 20:29N 53°28' E 009°59'0 0.0
2017-Aug-16 19:59N 53°28' E 009°59'0 0.0
2017-Aug-16 19:26N 53°28' E 009°59'0 0.0
2017-Aug-16 18:59N 53°28' E 009°59'0 0.0
2017-Aug-16 18:29N 53°28' E 009°59'0 0.0
2017-Aug-16 17:59N 53°28' E 009°59'0 0.0
2017-Aug-16 17:29N 53°28' E 009°59'0 0.0
2017-Aug-16 16:59N 53°28' E 009°59'0 0.0
2017-Aug-16 16:29N 53°28' E 009°59'0 0.0
2017-Aug-16 15:59N 53°28' E 009°59'0 0.0
2017-Aug-16 15:26N 53°28' E 009°59'0 0.0
2017-Aug-16 14:59N 53°28' E 009°59'0 0.0
2017-Aug-16 14:29N 53°28' E 009°59'0 0.0
2017-Aug-16 13:59N 53°28' E 009°59'0 0.0
2017-Aug-16 13:29N 53°28' E 009°59'0 0.0
2017-Aug-16 12:59N 53°28' E 009°59'0 0.0
2017-Aug-16 12:29N 53°28' E 009°59'0 0.0
2017-Aug-16 11:59N 53°28' E 009°59'0 0.0
2017-Aug-16 11:29N 53°28' E 009°59'0 0.0
2017-Aug-16 10:56N 53°28' E 009°59'0 0.0
2017-Aug-16 10:29N 53°28' E 009°59'0 0.0
2017-Aug-16 09:59N 53°28' E 009°59'0 0.0
2017-Aug-16 09:29N 53°28' E 009°59'0 0.0
2017-Aug-16 08:59N 53°28' E 009°59'0 0.0
2017-Aug-16 08:29N 53°28' E 009°59'0 0.0
2017-Aug-16 07:59N 53°28' E 009°59'0 0.0
2017-Aug-16 07:29N 53°28' E 009°59'0 0.0
2017-Aug-16 06:59N 53°28' E 009°59'0 0.0
2017-Aug-16 06:29N 53°28' E 009°59'0 0.0
2017-Aug-16 05:59N 53°28' E 009°59'0 0.0
2017-Aug-16 05:26N 53°28' E 009°59'0 0.0
2017-Aug-16 04:59N 53°28' E 009°59'0 0.0
2017-Aug-16 04:29N 53°28' E 009°59'0 0.0
2017-Aug-16 03:59N 53°28' E 009°59'0 0.0
2017-Aug-16 03:29N 53°28' E 009°59'0 0.0
2017-Aug-16 02:59N 53°28' E 009°59'0 0.0
2017-Aug-16 02:26N 53°28' E 009°59'0 0.0
2017-Aug-16 01:59N 53°28' E 009°59'0 0.0
2017-Aug-16 01:29N 53°28' E 009°59'0 0.0
2017-Aug-16 00:59N 53°28' E 009°59'0 0.0
2017-Aug-16 00:29N 53°28' E 009°59'0 0.0
2017-Aug-15 23:59N 53°28' E 009°59'0 0.0
2017-Aug-15 23:29N 53°28' E 009°59'0 0.0
2017-Aug-15 22:56N 53°28' E 009°59'0 0.0
2017-Aug-15 22:29N 53°28' E 009°59'0 0.0
2017-Aug-15 21:59N 53°28' E 009°59'0 0.0
2017-Aug-15 21:29N 53°28' E 009°59'0 0.0
2017-Aug-15 20:59N 53°28' E 009°59'0 0.0
2017-Aug-15 20:29N 53°28' E 009°59'0 0.0
2017-Aug-15 19:59N 53°28' E 009°59'0 0.0
2017-Aug-15 19:29N 53°28' E 009°59'0 0.0
2017-Aug-15 18:59N 53°28' E 009°59'0 0.0
2017-Aug-15 18:29N 53°28' E 009°59'0 0.0
2017-Aug-15 17:53N 53°28' E 009°59'0 0.0
2017-Aug-15 17:29N 53°28' E 009°59'0 0.0
2017-Aug-15 16:56N 53°28' E 009°59'0 0.0
2017-Aug-15 16:26N 53°28' E 009°59'0 0.0
2017-Aug-15 15:59N 53°28' E 009°59'0 0.0
2017-Aug-15 15:29N 53°28' E 009°59'0 0.0
2017-Aug-15 14:59N 53°28' E 009°59'0 0.0
2017-Aug-15 14:29N 53°28' E 009°59'0 0.0
2017-Aug-15 13:59N 53°28' E 009°59'0 0.0
2017-Aug-15 13:29N 53°28' E 009°59'0 0.0
2017-Aug-15 12:59N 53°28' E 009°59'0 0.0
2017-Aug-15 12:29N 53°28' E 009°59'0 0.0
2017-Aug-15 11:59N 53°28' E 009°59'0 0.0
2017-Aug-15 11:29N 53°28' E 009°59'0 0.0
2017-Aug-15 10:56N 53°28' E 009°59'0 0.0
2017-Aug-15 10:29N 53°28' E 009°59'0 0.0
2017-Aug-15 09:59N 53°28' E 009°59'0 0.0
2017-Aug-15 09:29N 53°28' E 009°59'0 0.0
2017-Aug-15 08:59N 53°28' E 009°59'0 0.0
2017-Aug-15 08:29N 53°28' E 009°59'0 0.0
2017-Aug-15 08:01N 53°28' E 009°59'0 0.0
2017-Aug-15 07:31N 53°28' E 009°59'0 0.0
2017-Aug-15 07:00N 53°28' E 009°59'0 0.4
2017-Aug-15 06:30N 53°28' E 009°59'2 4.4
2017-Aug-15 06:01N 53°30' E 009°57'1 2.8
2017-Aug-15 05:30N 53°31' E 009°56'3 5.4
2017-Aug-15 05:01N 53°33' E 009°52'5 9.2
2017-Aug-15 04:30N 53°34' E 009°45'4 8.7
2017-Aug-15 04:01N 53°35' E 009°38'4 7.9
2017-Aug-15 03:30N 53°37' E 009°32'4 7.9
2017-Aug-15 03:00N 53°41' E 009°30'4 7.6
2017-Aug-15 02:30N 53°44' E 009°26'3 7.0
2017-Aug-15 02:00N 53°47' E 009°23'3 6.7
2017-Aug-15 01:30N 53°50' E 009°21'3 6.0
2017-Aug-15 01:00N 53°52' E 009°17'3 5.5
2017-Aug-15 00:30N 53°53' E 009°12'2 4.6
2017-Aug-15 00:00N 53°53' E 009°08'1 1.8
2017-Aug-14 23:30N 53°54' E 009°09'1 1.3
2017-Aug-14 23:00N 53°54' E 009°09'0 0.0
2017-Aug-14 22:30N 53°54' E 009°09'0 0.0
2017-Aug-14 22:00N 53°54' E 009°09'0 0.0
2017-Aug-14 21:30N 53°54' E 009°09'0 0.0
2017-Aug-14 21:00N 53°54' E 009°09'0 0.0
2017-Aug-14 20:30N 53°54' E 009°09'0 0.0
2017-Aug-14 20:00N 53°54' E 009°09'0 0.0
2017-Aug-14 19:30N 53°54' E 009°09'0 0.0
2017-Aug-14 18:57N 53°54' E 009°09'0 0.0
2017-Aug-14 18:30N 53°54' E 009°09'0 0.0
2017-Aug-14 18:00N 53°54' E 009°09'0 0.0
2017-Aug-14 17:30N 53°54' E 009°09'1 2.6
2017-Aug-14 17:00N 53°55' E 009°11'4 7.3
2017-Aug-14 16:30N 53°58' E 009°15'3 7.0
2017-Aug-14 16:00N 54°01' E 009°18'57 5.5
2017-Aug-14 05:41N 54°30' E 010°42'1 7.8
2017-Aug-14 05:30N 54°30' E 010°44'4 7.6
2017-Aug-14 05:00N 54°31' E 010°51'4 7.2
2017-Aug-14 04:30N 54°32' E 010°57'3 6.9
2017-Aug-14 04:01N 54°32' E 011°03'3 6.7
2017-Aug-14 03:30N 54°32' E 011°08'3 6.9
2017-Aug-14 03:01N 54°31' E 011°14'3 5.0
2017-Aug-14 02:30N 54°30' E 011°18'3 6.1
2017-Aug-14 02:00N 54°28' E 011°22'4 6.0
2017-Aug-14 01:17N 54°26' E 011°29'2 5.9
2017-Aug-14 01:00N 54°25' E 011°31'3 5.8
2017-Aug-14 00:31N 54°23' E 011°35'3 5.8
2017-Aug-14 00:00N 54°22' E 011°39'5 5.8
2017-Aug-13 23:12N 54°19' E 011°46'2 5.6
2017-Aug-13 22:50N 54°18' E 011°49'2 5.8
2017-Aug-13 22:28N 54°17' E 011°52'11 5.8
2017-Aug-13 20:32N 54°09' E 012°06'0 7.4
2017-Aug-13 20:30N 54°09' E 012°06'0 0.1
2017-Aug-13 18:02N 54°09' E 012°06'0 0.4
2017-Aug-13 18:00N 54°09' E 012°06'3 6.4
2017-Aug-13 17:31N 54°13' E 012°06'1 0.9
2017-Aug-13 16:55N 54°13' E 012°06'2 3.0
2017-Aug-13 16:25N 54°12' E 012°05'6 5.7
2017-Aug-13 15:26N 54°06' E 012°06'1 0.8
2017-Aug-13 14:29N 54°06' E 012°07'0 0.0
2017-Aug-13 14:00N 54°06' E 012°07'1 2.5
2017-Aug-13 13:27N 54°07' E 012°06'3 4.6
2017-Aug-13 12:47N 54°10' E 012°06'1 3.6
2017-Aug-13 12:31N 54°11' E 012°06'2 3.8
2017-Aug-13 11:55N 54°13' E 012°06'2 4.7
2017-Aug-13 11:27N 54°15' E 012°08'3 2.5
2017-Aug-13 10:15N 54°12' E 012°05'0 1.4
2017-Aug-13 10:00N 54°12' E 012°05'6 4.4
2017-Aug-13 08:37N 54°06' E 012°07'0 2.5
2017-Aug-13 08:28N 54°06' E 012°07'0 0.1
2017-Aug-13 08:00N 54°06' E 012°07'0 0.0
2017-Aug-13 07:15N 54°06' E 012°07'0 0.0
2017-Aug-13 07:00N 54°06' E 012°07'0 0.0
2017-Aug-13 06:13N 54°06' E 012°07'0 0.0
2017-Aug-13 05:47N 54°06' E 012°07'0 0.0
2017-Aug-13 05:23N 54°06' E 012°07'0 0.0
2017-Aug-13 05:00N 54°06' E 012°07'0 0.0
2017-Aug-13 04:26N 54°06' E 012°07'0 0.0
2017-Aug-13 03:57N 54°06' E 012°07'0 0.0
2017-Aug-13 03:30N 54°06' E 012°07'0 0.0
2017-Aug-13 03:00N 54°06' E 012°07'0 0.0
2017-Aug-13 01:23N 54°06' E 012°07'0 0.0
2017-Aug-13 01:00N 54°06' E 012°07'0 0.0
2017-Aug-13 00:31N 54°06' E 012°07'0 0.0
2017-Aug-13 00:00N 54°06' E 012°07'0 0.0
2017-Aug-12 23:30N 54°06' E 012°07'0 0.1
2017-Aug-12 21:47N 54°06' E 012°07'0 1.2
2017-Aug-12 21:30N 54°06' E 012°07'2 4.4
2017-Aug-12 21:01N 54°08' E 012°06'2 4.2
2017-Aug-12 20:30N 54°10' E 012°06'2 1.9
2017-Aug-12 19:20N 54°12' E 012°04'1 1.9
2017-Aug-12 18:57N 54°12' E 012°05'3 3.6
2017-Aug-12 18:11N 54°09' E 012°06'3 1.4
2017-Aug-12 15:42N 54°06' E 012°07'0 0.0
2017-Aug-12 15:25N 54°06' E 012°07'2 2.8
2017-Aug-12 14:38N 54°08' E 012°06'1 5.9
2017-Aug-12 14:27N 54°09' E 012°06'2 4.3
2017-Aug-12 14:00N 54°11' E 012°06'1 1.8
2017-Aug-12 13:30N 54°11' E 012°06'8 5.4
2017-Aug-12 12:02N 54°19' E 012°06'0 2.1
2017-Aug-12 12:01N 54°19' E 012°06'4 4.0
2017-Aug-12 11:08N 54°16' E 012°06'1 4.3
2017-Aug-12 10:48N 54°14' E 012°05'4 4.6
2017-Aug-12 09:52N 54°10' E 012°06'2 4.7
2017-Aug-12 09:28N 54°08' E 012°06'3 3.1
2017-Aug-12 08:38N 54°06' E 012°07'0 1.6
2017-Aug-12 08:28N 54°06' E 012°07'0 0.0
2017-Aug-12 07:32N 54°06' E 012°07'0 0.1
2017-Aug-12 07:29N 54°06' E 012°07'0 0.0
2017-Aug-12 03:02N 54°06' E 012°07'0 0.0
2017-Aug-11 23:36N 54°06' E 012°07'0 0.0
2017-Aug-11 23:30N 54°06' E 012°07'0 0.0
2017-Aug-11 22:54N 54°06' E 012°07'0 0.0
2017-Aug-11 22:30N 54°06' E 012°07'0 0.0
2017-Aug-11 21:18N 54°06' E 012°07'1 2.2
2017-Aug-11 21:00N 54°06' E 012°07'2 4.9
2017-Aug-11 20:30N 54°08' E 012°06'3 5.6
2017-Aug-11 19:57N 54°12' E 012°05'2 4.6
2017-Aug-11 19:29N 54°12' E 012°02'1 1.9
2017-Aug-11 19:00N 54°12' E 012°03'5 3.6
2017-Aug-11 17:30N 54°07' E 012°06'1 0.5
2017-Aug-11 14:33N 54°06' E 012°07'0 0.1
2017-Aug-11 13:56N 54°06' E 012°07'1 3.1
2017-Aug-11 13:30N 54°07' E 012°06'2 3.2
2017-Aug-11 12:59N 54°08' E 012°06'3 6.0
2017-Aug-11 12:27N 54°12' E 012°04'2 4.6
2017-Aug-11 12:00N 54°12' E 012°01'2 2.7
2017-Aug-11 11:10N 54°13' E 011°58'6 3.6
2017-Aug-11 09:34N 54°10' E 012°06'2 5.3
2017-Aug-11 09:13N 54°08' E 012°06'1 4.3
2017-Aug-11 08:58N 54°07' E 012°06'2 1.0
2017-Aug-11 07:15N 54°06' E 012°07'0 0.0
2017-Aug-11 07:00N 54°06' E 012°07'0 0.0
2017-Aug-11 06:30N 54°06' E 012°07'0 0.0
2017-Aug-11 00:00N 54°06' E 012°07'0 0.0
2017-Aug-10 23:30N 54°06' E 012°07'8 1.8
2017-Aug-10 19:17N 54°13' E 012°07'0 1.7
2017-Aug-10 19:00N 54°13' E 012°06'1 1.9
2017-Aug-10 18:30N 54°12' E 012°06'1 2.8
2017-Aug-10 18:00N 54°11' E 012°06'3 6.1
2017-Aug-10 17:30N 54°08' E 012°06'2 0.9
2017-Aug-10 14:56N 54°06' E 012°07'0 0.0
2017-Aug-10 14:29N 54°06' E 012°07'0 0.0
2017-Aug-10 13:58N 54°06' E 012°07'1 2.4
2017-Aug-10 13:30N 54°06' E 012°06'3 6.5
2017-Aug-10 12:59N 54°10' E 012°06'3 5.5
2017-Aug-10 12:28N 54°13' E 012°06'3 5.7
2017-Aug-10 11:58N 54°15' E 012°07'  
Track history (hours):
 
Tides and Currents Weather Stations Pressure Air Temp Water Temp Dewpoint Dewpoint Depression Visibility Wind Speed Wind Dir Waves Ship Positions

Mare Frisium (Netherlands)

Ship's website: http://www.tallship-company.com/mare-frisium-2/

Last reported at 2017-Aug-20 11:30 UTC. Time now 2017-Aug-20 11:30 UTC.
Position N 53°33' E 009°50'.

Length 50 m; draft 2.7 m.

Type: Sailing vessel. MMSI: 244596000.

Date/timePositionNaut miles runAvg speedWind from/ knotsBaromVisibWave heightAir tempDewpointWater temp
2017-Aug-20 11:30N 53°33' E 009°50'2 4.2
2017-Aug-20 11:00N 53°34' E 009°46'2 4.2
2017-Aug-20 10:30N 53°33' E 009°50'2 4.0
2017-Aug-20 10:00N 53°33' E 009°53'2 4.1
2017-Aug-20 09:30N 53°33' E 009°56'2 2.9
2017-Aug-20 08:59N 53°33' E 009°59'0 0.0
2017-Aug-20 08:29N 53°33' E 009°59'0 0.0
2017-Aug-20 07:59N 53°33' E 009°59'0 0.2
2017-Aug-20 07:31N 53°33' E 009°59'0 0.0
2017-Aug-20 07:01N 53°33' E 009°59'0 0.0
2017-Aug-20 06:28N 53°33' E 009°59'0 0.0
2017-Aug-20 05:58N 53°33' E 009°59'0 0.0
2017-Aug-20 05:31N 53°33' E 009°59'0 0.0
2017-Aug-20 05:01N 53°33' E 009°59'0 0.0
2017-Aug-20 04:28N 53°33' E 009°59'0 0.0
2017-Aug-20 04:01N 53°33' E 009°59'0 0.0
2017-Aug-20 03:31N 53°33' E 009°59'0 0.0
2017-Aug-20 03:01N 53°33' E 009°59'0 0.0
2017-Aug-20 02:28N 53°33' E 009°59'0 0.0
2017-Aug-20 01:58N 53°33' E 009°59'0 0.0
2017-Aug-20 01:31N 53°33' E 009°59'0 0.0
2017-Aug-20 00:58N 53°33' E 009°59'0 0.0
2017-Aug-20 00:28N 53°33' E 009°59'0 0.0
2017-Aug-19 23:58N 53°33' E 009°59'0 0.0
2017-Aug-19 23:28N 53°33' E 009°59'0 0.0
2017-Aug-19 22:58N 53°33' E 009°59'0 0.0
2017-Aug-19 22:28N 53°33' E 009°59'0 0.0
2017-Aug-19 21:58N 53°33' E 009°59'0 0.0
2017-Aug-19 21:28N 53°33' E 009°59'0 0.0
2017-Aug-19 20:58N 53°33' E 009°59'0 0.0
2017-Aug-19 20:31N 53°33' E 009°59'0 0.2
2017-Aug-19 20:01N 53°32' E 009°59'2 4.9
2017-Aug-19 19:30N 53°32' E 009°55'2 4.9
2017-Aug-19 19:00N 53°33' E 009°51'3 5.6
2017-Aug-19 18:30N 53°34' E 009°46'2 4.7
2017-Aug-19 18:01N 53°34' E 009°42'2 3.9
2017-Aug-19 17:30N 53°34' E 009°39'2 3.9
2017-Aug-19 17:01N 53°35' E 009°36'1 2.8
2017-Aug-19 16:30N 53°36' E 009°35'1 2.7
2017-Aug-19 16:00N 53°37' E 009°33'2 3.4
2017-Aug-19 15:30N 53°39' E 009°31'2 3.6
2017-Aug-19 15:00N 53°40' E 009°31'3 3.4
2017-Aug-19 14:01N 53°37' E 009°33'3 5.1
2017-Aug-19 13:30N 53°36' E 009°36'3 5.2
2017-Aug-19 13:00N 53°34' E 009°40'3 5.5
2017-Aug-19 12:31N 53°34' E 009°45'3 5.2
2017-Aug-19 12:00N 53°33' E 009°49'3 5.0
2017-Aug-19 11:30N 53°33' E 009°53'3 5.5
2017-Aug-19 11:00N 53°33' E 009°58'1 1.4
2017-Aug-19 10:25N 53°33' E 009°59'0 0.0
2017-Aug-19 09:58N 53°33' E 009°59'0 0.0
2017-Aug-19 09:28N 53°33' E 009°59'0 0.0
2017-Aug-19 08:58N 53°33' E 009°59'0 0.0
2017-Aug-19 08:28N 53°33' E 009°59'0 0.0
2017-Aug-19 07:58N 53°33' E 009°59'0 0.1
2017-Aug-19 07:31N 53°32' E 009°59'0 0.2
2017-Aug-19 06:58N 53°33' E 009°59'0 0.0
2017-Aug-19 06:28N 53°33' E 009°59'0 0.0
2017-Aug-19 05:58N 53°33' E 009°59'0 0.0
2017-Aug-19 05:28N 53°33' E 009°59'0 0.0
2017-Aug-19 04:58N 53°33' E 009°59'0 0.0
2017-Aug-19 04:28N 53°33' E 009°59'0 0.0
2017-Aug-19 03:58N 53°33' E 009°59'0 0.0
2017-Aug-19 03:28N 53°33' E 009°59'0 0.0
2017-Aug-19 02:58N 53°33' E 009°59'0 0.0
2017-Aug-19 02:28N 53°33' E 009°59'0 0.0
2017-Aug-19 01:58N 53°33' E 009°59'0 0.0
2017-Aug-19 01:28N 53°33' E 009°59'0 0.0
2017-Aug-19 00:58N 53°33' E 009°59'0 0.0
2017-Aug-19 00:28N 53°33' E 009°59'0 0.0
2017-Aug-18 23:58N 53°33' E 009°59'0 0.0
2017-Aug-18 23:28N 53°33' E 009°59'0 0.0
2017-Aug-18 22:58N 53°33' E 009°59'0 0.0
2017-Aug-18 22:28N 53°33' E 009°59'0 0.0
2017-Aug-18 21:58N 53°33' E 009°59'0 0.0
2017-Aug-18 21:28N 53°33' E 009°59'0 0.0
2017-Aug-18 20:58N 53°33' E 009°59'0 0.0
2017-Aug-18 20:28N 53°33' E 009°59'0 0.0
2017-Aug-18 19:58N 53°33' E 009°59'0 0.0
2017-Aug-18 19:28N 53°33' E 009°59'0 0.0
2017-Aug-18 18:58N 53°33' E 009°59'0 0.0
2017-Aug-18 18:28N 53°33' E 009°59'0 0.0
2017-Aug-18 17:58N 53°33' E 009°59'0 0.0
2017-Aug-18 17:28N 53°33' E 009°59'0 0.0
2017-Aug-18 16:58N 53°33' E 009°59'0 0.0
2017-Aug-18 16:28N 53°33' E 009°59'0 0.0
2017-Aug-18 15:58N 53°33' E 009°59'0 0.0
2017-Aug-18 15:28N 53°33' E 009°59'0 0.0
2017-Aug-18 14:58N 53°33' E 009°59'0 0.0
2017-Aug-18 14:28N 53°33' E 009°59'0 0.0
2017-Aug-18 13:28N 53°33' E 009°59'0 0.0
2017-Aug-18 12:58N 53°33' E 009°59'0 0.0
2017-Aug-18 12:28N 53°33' E 009°59'0 0.0
2017-Aug-18 11:58N 53°33' E 009°59'0 0.0
2017-Aug-18 11:28N 53°33' E 009°59'0 0.0
2017-Aug-18 10:58N 53°33' E 009°59'0 0.0
2017-Aug-18 10:28N 53°33' E 009°59'0 0.0
2017-Aug-18 09:58N 53°33' E 009°59'0 0.0
2017-Aug-18 09:28N 53°33' E 009°59'0 0.0
2017-Aug-18 08:58N 53°33' E 009°59'0 0.0
2017-Aug-18 08:28N 53°33' E 009°59'0 0.0
2017-Aug-18 07:58N 53°33' E 009°59'0 0.0
2017-Aug-18 07:28N 53°33' E 009°59'0 0.0
2017-Aug-18 06:58N 53°33' E 009°59'0 0.0
2017-Aug-18 06:28N 53°33' E 009°59'0 0.0
2017-Aug-18 05:58N 53°33' E 009°59'0 0.0
2017-Aug-18 05:28N 53°33' E 009°59'0 0.0
2017-Aug-18 04:58N 53°33' E 009°59'0 0.0
2017-Aug-18 04:28N 53°33' E 009°59'0 0.0
2017-Aug-18 03:58N 53°33' E 009°59'0 0.0
2017-Aug-18 03:25N 53°33' E 009°59'0 0.0
2017-Aug-18 02:58N 53°33' E 009°59'0 0.0
2017-Aug-18 02:28N 53°33' E 009°59'0 0.0
2017-Aug-18 01:58N 53°33' E 009°59'0 0.0
2017-Aug-18 01:28N 53°33' E 009°59'0 0.0
2017-Aug-18 00:58N 53°33' E 009°59'0 0.0
2017-Aug-18 00:28N 53°33' E 009°59'0 0.0
2017-Aug-17 23:58N 53°33' E 009°59'0 0.0
2017-Aug-17 23:28N 53°33' E 009°59'0 0.0
2017-Aug-17 22:58N 53°33' E 009°59'0 0.0
2017-Aug-17 22:28N 53°33' E 009°59'0 0.0
2017-Aug-17 21:58N 53°33' E 009°59'0 0.0
2017-Aug-17 21:28N 53°33' E 009°59'0 0.0
2017-Aug-17 20:58N 53°33' E 009°59'0 0.0
2017-Aug-17 20:28N 53°33' E 009°59'0 0.1
2017-Aug-17 20:00N 53°33' E 009°59'2 5.0
2017-Aug-17 19:30N 53°32' E 009°55'3 5.4
2017-Aug-17 19:01N 53°33' E 009°50'3 5.6
2017-Aug-17 18:30N 53°34' E 009°46'2 4.5
2017-Aug-17 18:00N 53°34' E 009°42'2 3.5
2017-Aug-17 17:31N 53°34' E 009°39'2 4.3
2017-Aug-17 17:00N 53°34' E 009°43'3 5.5
2017-Aug-17 16:30N 53°34' E 009°47'3 5.6
2017-Aug-17 16:00N 53°33' E 009°52'3 6.2
2017-Aug-17 15:30N 53°33' E 009°57'1 2.1
2017-Aug-17 14:58N 53°33' E 009°59'0 0.0
2017-Aug-17 14:28N 53°33' E 009°59'0 0.0
2017-Aug-17 13:58N 53°33' E 009°59'0 0.0
2017-Aug-17 13:28N 53°33' E 009°59'0 0.1
2017-Aug-17 12:58N 53°33' E 009°59'0 0.0
2017-Aug-17 12:28N 53°33' E 009°59'0 0.0
2017-Aug-17 11:58N 53°33' E 009°59'0 0.0
2017-Aug-17 11:28N 53°33' E 009°59'0 0.0
2017-Aug-17 10:58N 53°33' E 009°59'0 0.1
2017-Aug-17 10:28N 53°33' E 009°59'0 0.1
2017-Aug-17 09:58N 53°33' E 009°59'0 0.0
2017-Aug-17 09:28N 53°33' E 009°59'0 0.0
2017-Aug-17 08:58N 53°33' E 009°59'0 0.0
2017-Aug-17 08:28N 53°33' E 009°59'0 0.0
2017-Aug-17 07:59N 53°33' E 009°59'2 3.5
2017-Aug-17 07:31N 53°32' E 009°56'3 6.1
2017-Aug-17 07:00N 53°29' E 009°58'1 2.1
2017-Aug-17 06:31N 53°28' E 009°59'0 0.3
2017-Aug-17 06:00N 53°28' E 009°59'0 0.0
2017-Aug-17 05:29N 53°28' E 009°59'0 0.0
2017-Aug-17 04:59N 53°28' E 009°59'0 0.0
2017-Aug-17 04:29N 53°28' E 009°59'0 0.0
2017-Aug-17 03:59N 53°28' E 009°59'0 0.0
2017-Aug-17 03:29N 53°28' E 009°59'0 0.0
2017-Aug-17 02:59N 53°28' E 009°59'0 0.0
2017-Aug-17 02:29N 53°28' E 009°59'0 0.0
2017-Aug-17 01:56N 53°28' E 009°59'0 0.0
2017-Aug-17 01:29N 53°28' E 009°59'0 0.0
2017-Aug-17 00:59N 53°28' E 009°59'0 0.0
2017-Aug-17 00:29N 53°28' E 009°59'0 0.0
2017-Aug-16 23:59N 53°28' E 009°59'0 0.0
2017-Aug-16 23:29N 53°28' E 009°59'0 0.0
2017-Aug-16 22:59N 53°28' E 009°59'0 0.0
2017-Aug-16 22:29N 53°28' E 009°59'0 0.0
2017-Aug-16 21:59N 53°28' E 009°59'0 0.0
2017-Aug-16 21:29N 53°28' E 009°59'0 0.0
2017-Aug-16 20:59N 53°28' E 009°59'0 0.0
2017-Aug-16 20:29N 53°28' E 009°59'0 0.0
2017-Aug-16 19:59N 53°28' E 009°59'0 0.0
2017-Aug-16 19:26N 53°28' E 009°59'0 0.0
2017-Aug-16 18:59N 53°28' E 009°59'0 0.0
2017-Aug-16 18:29N 53°28' E 009°59'0 0.0
2017-Aug-16 17:59N 53°28' E 009°59'0 0.0
2017-Aug-16 17:29N 53°28' E 009°59'0 0.0
2017-Aug-16 16:59N 53°28' E 009°59'0 0.0
2017-Aug-16 16:29N 53°28' E 009°59'0 0.0
2017-Aug-16 15:59N 53°28' E 009°59'0 0.0
2017-Aug-16 15:26N 53°28' E 009°59'0 0.0
2017-Aug-16 14:59N 53°28' E 009°59'0 0.0
2017-Aug-16 14:29N 53°28' E 009°59'0 0.0
2017-Aug-16 13:59N 53°28' E 009°59'0 0.0
2017-Aug-16 13:29N 53°28' E 009°59'0 0.0
2017-Aug-16 12:59N 53°28' E 009°59'0 0.0
2017-Aug-16 12:29N 53°28' E 009°59'0 0.0
2017-Aug-16 11:59N 53°28' E 009°59'0 0.0
2017-Aug-16 11:29N 53°28' E 009°59'0 0.0
2017-Aug-16 10:56N 53°28' E 009°59'0 0.0
2017-Aug-16 10:29N 53°28' E 009°59'0 0.0
2017-Aug-16 09:59N 53°28' E 009°59'0 0.0
2017-Aug-16 09:29N 53°28' E 009°59'0 0.0
2017-Aug-16 08:59N 53°28' E 009°59'0 0.0
2017-Aug-16 08:29N 53°28' E 009°59'0 0.0
2017-Aug-16 07:59N 53°28' E 009°59'0 0.0
2017-Aug-16 07:29N 53°28' E 009°59'0 0.0
2017-Aug-16 06:59N 53°28' E 009°59'0 0.0
2017-Aug-16 06:29N 53°28' E 009°59'0 0.0
2017-Aug-16 05:59N 53°28' E 009°59'0 0.0
2017-Aug-16 05:26N 53°28' E 009°59'0 0.0
2017-Aug-16 04:59N 53°28' E 009°59'0 0.0
2017-Aug-16 04:29N 53°28' E 009°59'0 0.0
2017-Aug-16 03:59N 53°28' E 009°59'0 0.0
2017-Aug-16 03:29N 53°28' E 009°59'0 0.0
2017-Aug-16 02:59N 53°28' E 009°59'0 0.0
2017-Aug-16 02:26N 53°28' E 009°59'0 0.0
2017-Aug-16 01:59N 53°28' E 009°59'0 0.0
2017-Aug-16 01:29N 53°28' E 009°59'0 0.0
2017-Aug-16 00:59N 53°28' E 009°59'0 0.0
2017-Aug-16 00:29N 53°28' E 009°59'0 0.0
2017-Aug-15 23:59N 53°28' E 009°59'0 0.0
2017-Aug-15 23:29N 53°28' E 009°59'0 0.0
2017-Aug-15 22:56N 53°28' E 009°59'0 0.0
2017-Aug-15 22:29N 53°28' E 009°59'0 0.0
2017-Aug-15 21:59N 53°28' E 009°59'0 0.0
2017-Aug-15 21:29N 53°28' E 009°59'0 0.0
2017-Aug-15 20:59N 53°28' E 009°59'0 0.0
2017-Aug-15 20:29N 53°28' E 009°59'0 0.0
2017-Aug-15 19:59N 53°28' E 009°59'0 0.0
2017-Aug-15 19:29N 53°28' E 009°59'0 0.0
2017-Aug-15 18:59N 53°28' E 009°59'0 0.0
2017-Aug-15 18:29N 53°28' E 009°59'0 0.0
2017-Aug-15 17:53N 53°28' E 009°59'0 0.0
2017-Aug-15 17:29N 53°28' E 009°59'0 0.0
2017-Aug-15 16:56N 53°28' E 009°59'0 0.0
2017-Aug-15 16:26N 53°28' E 009°59'0 0.0
2017-Aug-15 15:59N 53°28' E 009°59'0 0.0
2017-Aug-15 15:29N 53°28' E 009°59'0 0.0
2017-Aug-15 14:59N 53°28' E 009°59'0 0.0
2017-Aug-15 14:29N 53°28' E 009°59'0 0.0
2017-Aug-15 13:59N 53°28' E 009°59'0 0.0
2017-Aug-15 13:29N 53°28' E 009°59'0 0.0
2017-Aug-15 12:59N 53°28' E 009°59'0 0.0
2017-Aug-15 12:29N 53°28' E 009°59'0 0.0
2017-Aug-15 11:59N 53°28' E 009°59'0 0.0
2017-Aug-15 11:29N 53°28' E 009°59'0 0.0
2017-Aug-15 10:56N 53°28' E 009°59'0 0.0
2017-Aug-15 10:29N 53°28' E 009°59'0 0.0
2017-Aug-15 09:59N 53°28' E 009°59'0 0.0
2017-Aug-15 09:29N 53°28' E 009°59'0 0.0
2017-Aug-15 08:59N 53°28' E 009°59'0 0.0
2017-Aug-15 08:29N 53°28' E 009°59'0 0.0
2017-Aug-15 08:01N 53°28' E 009°59'0 0.0
2017-Aug-15 07:31N 53°28' E 009°59'0 0.0
2017-Aug-15 07:00N 53°28' E 009°59'0 0.4
2017-Aug-15 06:30N 53°28' E 009°59'2 4.4
2017-Aug-15 06:01N 53°30' E 009°57'1 2.8
2017-Aug-15 05:30N 53°31' E 009°56'3 5.4
2017-Aug-15 05:01N 53°33' E 009°52'5 9.2
2017-Aug-15 04:30N 53°34' E 009°45'4 8.7
2017-Aug-15 04:01N 53°35' E 009°38'4 7.9
2017-Aug-15 03:30N 53°37' E 009°32'4 7.9
2017-Aug-15 03:00N 53°41' E 009°30'4 7.6
2017-Aug-15 02:30N 53°44' E 009°26'3 7.0
2017-Aug-15 02:00N 53°47' E 009°23'3 6.7
2017-Aug-15 01:30N 53°50' E 009°21'3 6.0
2017-Aug-15 01:00N 53°52' E 009°17'3 5.5
2017-Aug-15 00:30N 53°53' E 009°12'2 4.6
2017-Aug-15 00:00N 53°53' E 009°08'1 1.8
2017-Aug-14 23:30N 53°54' E 009°09'1 1.3
2017-Aug-14 23:00N 53°54' E 009°09'0 0.0
2017-Aug-14 22:30N 53°54' E 009°09'0 0.0
2017-Aug-14 22:00N 53°54' E 009°09'0 0.0
2017-Aug-14 21:30N 53°54' E 009°09'0 0.0
2017-Aug-14 21:00N 53°54' E 009°09'0 0.0
2017-Aug-14 20:30N 53°54' E 009°09'0 0.0
2017-Aug-14 20:00N 53°54' E 009°09'0 0.0
2017-Aug-14 19:30N 53°54' E 009°09'0 0.0
2017-Aug-14 18:57N 53°54' E 009°09'0 0.0
2017-Aug-14 18:30N 53°54' E 009°09'0 0.0
2017-Aug-14 18:00N 53°54' E 009°09'0 0.0
2017-Aug-14 17:30N 53°54' E 009°09'1 2.6
2017-Aug-14 17:00N 53°55' E 009°11'4 7.3
2017-Aug-14 16:30N 53°58' E 009°15'3 7.0
2017-Aug-14 16:00N 54°01' E 009°18'57 5.5
2017-Aug-14 05:41N 54°30' E 010°42'1 7.8
2017-Aug-14 05:30N 54°30' E 010°44'4 7.6
2017-Aug-14 05:00N 54°31' E 010°51'4 7.2
2017-Aug-14 04:30N 54°32' E 010°57'3 6.9
2017-Aug-14 04:01N 54°32' E 011°03'3 6.7
2017-Aug-14 03:30N 54°32' E 011°08'3 6.9
2017-Aug-14 03:01N 54°31' E 011°14'3 5.0
2017-Aug-14 02:30N 54°30' E 011°18'3 6.1
2017-Aug-14 02:00N 54°28' E 011°22'4 6.0
2017-Aug-14 01:17N 54°26' E 011°29'2 5.9
2017-Aug-14 01:00N 54°25' E 011°31'3 5.8
2017-Aug-14 00:31N 54°23' E 011°35'3 5.8
2017-Aug-14 00:00N 54°22' E 011°39'5 5.8
2017-Aug-13 23:12N 54°19' E 011°46'2 5.6
2017-Aug-13 22:50N 54°18' E 011°49'2 5.8
2017-Aug-13 22:28N 54°17' E 011°52'11 5.8
2017-Aug-13 20:32N 54°09' E 012°06'0 7.4
2017-Aug-13 20:30N 54°09' E 012°06'0 0.1
2017-Aug-13 18:02N 54°09' E 012°06'0 0.4
2017-Aug-13 18:00N 54°09' E 012°06'3 6.4
2017-Aug-13 17:31N 54°13' E 012°06'1 0.9
2017-Aug-13 16:55N 54°13' E 012°06'2 3.0
2017-Aug-13 16:25N 54°12' E 012°05'6 5.7
2017-Aug-13 15:26N 54°06' E 012°06'1 0.8
2017-Aug-13 14:29N 54°06' E 012°07'0 0.0
2017-Aug-13 14:00N 54°06' E 012°07'1 2.5
2017-Aug-13 13:27N 54°07' E 012°06'3 4.6
2017-Aug-13 12:47N 54°10' E 012°06'1 3.6
2017-Aug-13 12:31N 54°11' E 012°06'2 3.8
2017-Aug-13 11:55N 54°13' E 012°06'2 4.7
2017-Aug-13 11:27N 54°15' E 012°08'3 2.5
2017-Aug-13 10:15N 54°12' E 012°05'0 1.4
2017-Aug-13 10:00N 54°12' E 012°05'6 4.4
2017-Aug-13 08:37N 54°06' E 012°07'0 2.5
2017-Aug-13 08:28N 54°06' E 012°07'0 0.1
2017-Aug-13 08:00N 54°06' E 012°07'0 0.0
2017-Aug-13 07:15N 54°06' E 012°07'0 0.0
2017-Aug-13 07:00N 54°06' E 012°07'0 0.0
2017-Aug-13 06:13N 54°06' E 012°07'0 0.0
2017-Aug-13 05:47N 54°06' E 012°07'0 0.0
2017-Aug-13 05:23N 54°06' E 012°07'0 0.0
2017-Aug-13 05:00N 54°06' E 012°07'0 0.0
2017-Aug-13 04:26N 54°06' E 012°07'0 0.0
2017-Aug-13 03:57N 54°06' E 012°07'0 0.0
2017-Aug-13 03:30N 54°06' E 012°07'0 0.0
2017-Aug-13 03:00N 54°06' E 012°07'0 0.0
2017-Aug-13 01:23N 54°06' E 012°07'0 0.0
2017-Aug-13 01:00N 54°06' E 012°07'0 0.0
2017-Aug-13 00:31N 54°06' E 012°07'0 0.0
2017-Aug-13 00:00N 54°06' E 012°07'0 0.0
2017-Aug-12 23:30N 54°06' E 012°07'0 0.1
2017-Aug-12 21:47N 54°06' E 012°07'0 1.2
2017-Aug-12 21:30N 54°06' E 012°07'2 4.4
2017-Aug-12 21:01N 54°08' E 012°06'2 4.2
2017-Aug-12 20:30N 54°10' E 012°06'2 1.9
2017-Aug-12 19:20N 54°12' E 012°04'1 1.9
2017-Aug-12 18:57N 54°12' E 012°05'3 3.6
2017-Aug-12 18:11N 54°09' E 012°06'3 1.4
2017-Aug-12 15:42N 54°06' E 012°07'0 0.0
2017-Aug-12 15:25N 54°06' E 012°07'2 2.8
2017-Aug-12 14:38N 54°08' E 012°06'1 5.9
2017-Aug-12 14:27N 54°09' E 012°06'2 4.3
2017-Aug-12 14:00N 54°11' E 012°06'1 1.8
2017-Aug-12 13:30N 54°11' E 012°06'8 5.4
2017-Aug-12 12:02N 54°19' E 012°06'0 2.1
2017-Aug-12 12:01N 54°19' E 012°06'4 4.0
2017-Aug-12 11:08N 54°16' E 012°06'1 4.3
2017-Aug-12 10:48N 54°14' E 012°05'4 4.6
2017-Aug-12 09:52N 54°10' E 012°06'2 4.7
2017-Aug-12 09:28N 54°08' E 012°06'3 3.1
2017-Aug-12 08:38N 54°06' E 012°07'0 1.6
2017-Aug-12 08:28N 54°06' E 012°07'0 0.0
2017-Aug-12 07:32N 54°06' E 012°07'0 0.1
2017-Aug-12 07:29N 54°06' E 012°07'0 0.0
2017-Aug-12 03:02N 54°06' E 012°07'0 0.0
2017-Aug-11 23:36N 54°06' E 012°07'0 0.0
2017-Aug-11 23:30N 54°06' E 012°07'0 0.0
2017-Aug-11 22:54N 54°06' E 012°07'0 0.0
2017-Aug-11 22:30N 54°06' E 012°07'0 0.0
2017-Aug-11 21:18N 54°06' E 012°07'1 2.2
2017-Aug-11 21:00N 54°06' E 012°07'2 4.9
2017-Aug-11 20:30N 54°08' E 012°06'3 5.6
2017-Aug-11 19:57N 54°12' E 012°05'2 4.6
2017-Aug-11 19:29N 54°12' E 012°02'1 1.9
2017-Aug-11 19:00N 54°12' E 012°03'5 3.6
2017-Aug-11 17:30N 54°07' E 012°06'1 0.5
2017-Aug-11 14:33N 54°06' E 012°07'0 0.1
2017-Aug-11 13:56N 54°06' E 012°07'1 3.1
2017-Aug-11 13:30N 54°07' E 012°06'2 3.2
2017-Aug-11 12:59N 54°08' E 012°06'3 6.0
2017-Aug-11 12:27N 54°12' E 012°04'2 4.6
2017-Aug-11 12:00N 54°12' E 012°01'2 2.7
2017-Aug-11 11:10N 54°13' E 011°58'6 3.6
2017-Aug-11 09:34N 54°10' E 012°06'2 5.3
2017-Aug-11 09:13N 54°08' E 012°06'1 4.3
2017-Aug-11 08:58N 54°07' E 012°06'2 1.0
2017-Aug-11 07:15N 54°06' E 012°07'0 0.0
2017-Aug-11 07:00N 54°06' E 012°07'0 0.0
2017-Aug-11 06:30N 54°06' E 012°07'0 0.0
2017-Aug-11 00:00N 54°06' E 012°07'0 0.0
2017-Aug-10 23:30N 54°06' E 012°07'8 1.8
2017-Aug-10 19:17N 54°13' E 012°07'0 1.7
2017-Aug-10 19:00N 54°13' E 012°06'1 1.9
2017-Aug-10 18:30N 54°12' E 012°06'1 2.8
2017-Aug-10 18:00N 54°11' E 012°06'3 6.1
2017-Aug-10 17:30N 54°08' E 012°06'2 0.9
2017-Aug-10 14:56N 54°06' E 012°07'0 0.0
2017-Aug-10 14:29N 54°06' E 012°07'0 0.0
2017-Aug-10 13:58N 54°06' E 012°07'1 2.4
2017-Aug-10 13:30N 54°06' E 012°06'3 6.5
2017-Aug-10 12:59N 54°10' E 012°06'3 5.5
2017-Aug-10 12:28N 54°13' E 012°06'3 5.7
2017-Aug-10 11:58N 54°15' E 012°07'  

Dump ship's entire track history